sensor_id;sensor_type;location;lat;lon;timestamp;pressure;altitude;pressure_sealevel;temperature;humidity
14089;BME280;7120;52.890;6.040;2023-05-23T00:01:23;101771.88;;;13.17;100.00
14089;BME280;7120;52.890;6.040;2023-05-23T00:03:49;101785.72;;;13.12;100.00
14089;BME280;7120;52.890;6.040;2023-05-23T00:06:18;101783.66;;;13.23;100.00
14089;BME280;7120;52.890;6.040;2023-05-23T00:08:45;101785.00;;;13.25;100.00
14089;BME280;7120;52.890;6.040;2023-05-23T00:11:10;101779.91;;;13.13;100.00
14089;BME280;7120;52.890;6.040;2023-05-23T00:13:37;101775.00;;;13.10;100.00
14089;BME280;7120;52.890;6.040;2023-05-23T00:16:04;101776.53;;;13.22;100.00
14089;BME280;7120;52.890;6.040;2023-05-23T00:18:36;101771.38;;;13.15;100.00
14089;BME280;7120;52.890;6.040;2023-05-23T00:21:02;101786.72;;;13.16;100.00
14089;BME280;7120;52.890;6.040;2023-05-23T00:23:28;101788.97;;;13.14;100.00
14089;BME280;7120;52.890;6.040;2023-05-23T00:25:54;101790.44;;;13.06;100.00
14089;BME280;7120;52.890;6.040;2023-05-23T00:28:21;101792.69;;;13.04;100.00
14089;BME280;7120;52.890;6.040;2023-05-23T00:30:46;101790.75;;;13.05;100.00
14089;BME280;7120;52.890;6.040;2023-05-23T00:33:13;101793.41;;;13.10;100.00
14089;BME280;7120;52.890;6.040;2023-05-23T00:35:42;101791.19;;;13.12;100.00
14089;BME280;7120;52.890;6.040;2023-05-23T00:38:08;101807.44;;;13.08;100.00
14089;BME280;7120;52.890;6.040;2023-05-23T00:40:35;101797.28;;;13.09;100.00
14089;BME280;7120;52.890;6.040;2023-05-23T00:43:00;101796.97;;;13.10;100.00
14089;BME280;7120;52.890;6.040;2023-05-23T00:45:26;101793.56;;;13.00;100.00
14089;BME280;7120;52.890;6.040;2023-05-23T00:47:52;101794.81;;;13.07;100.00
14089;BME280;7120;52.890;6.040;2023-05-23T00:50:18;101795.69;;;13.03;100.00
14089;BME280;7120;52.890;6.040;2023-05-23T00:52:45;101801.25;;;13.22;100.00
14089;BME280;7120;52.890;6.040;2023-05-23T00:55:12;101805.44;;;13.14;100.00
14089;BME280;7120;52.890;6.040;2023-05-23T00:57:39;101807.88;;;13.15;100.00
14089;BME280;7120;52.890;6.040;2023-05-23T01:00:09;101803.50;;;13.14;100.00
14089;BME280;7120;52.890;6.040;2023-05-23T01:02:42;101803.75;;;13.18;100.00
14089;BME280;7120;52.890;6.040;2023-05-23T01:05:13;101805.44;;;13.14;100.00
14089;BME280;7120;52.890;6.040;2023-05-23T01:07:44;101811.75;;;13.14;100.00
14089;BME280;7120;52.890;6.040;2023-05-23T01:10:12;101816.94;;;13.16;100.00
14089;BME280;7120;52.890;6.040;2023-05-23T01:16:18;101824.34;;;13.21;100.00
14089;BME280;7120;52.890;6.040;2023-05-23T01:21:37;101816.59;;;13.04;100.00
14089;BME280;7120;52.890;6.040;2023-05-23T01:29:33;101823.63;;;13.10;100.00
14089;BME280;7120;52.890;6.040;2023-05-23T01:32:03;101817.81;;;12.92;100.00
14089;BME280;7120;52.890;6.040;2023-05-23T01:34:31;101824.88;;;12.99;100.00
14089;BME280;7120;52.890;6.040;2023-05-23T01:36:59;101822.94;;;12.99;100.00
14089;BME280;7120;52.890;6.040;2023-05-23T01:39:24;101826.88;;;12.93;100.00
14089;BME280;7120;52.890;6.040;2023-05-23T01:41:50;101826.16;;;12.82;100.00
14089;BME280;7120;52.890;6.040;2023-05-23T01:44:17;101827.50;;;12.85;100.00
14089;BME280;7120;52.890;6.040;2023-05-23T01:46:43;101830.00;;;12.81;100.00
14089;BME280;7120;52.890;6.040;2023-05-23T01:49:11;101835.91;;;12.93;100.00
14089;BME280;7120;52.890;6.040;2023-05-23T01:51:38;101834.63;;;12.86;100.00
14089;BME280;7120;52.890;6.040;2023-05-23T01:54:04;101834.81;;;12.95;100.00
14089;BME280;7120;52.890;6.040;2023-05-23T01:56:29;101838.50;;;12.85;100.00
14089;BME280;7120;52.890;6.040;2023-05-23T01:58:55;101843.53;;;12.78;100.00
14089;BME280;7120;52.890;6.040;2023-05-23T02:01:20;101846.84;;;12.75;100.00
14089;BME280;7120;52.890;6.040;2023-05-23T02:03:46;101852.31;;;12.75;100.00
14089;BME280;7120;52.890;6.040;2023-05-23T02:06:11;101861.91;;;12.77;100.00
14089;BME280;7120;52.890;6.040;2023-05-23T02:08:37;101855.66;;;12.72;100.00
14089;BME280;7120;52.890;6.040;2023-05-23T02:11:02;101857.34;;;12.68;100.00
14089;BME280;7120;52.890;6.040;2023-05-23T02:13:28;101861.66;;;12.74;100.00
14089;BME280;7120;52.890;6.040;2023-05-23T02:15:53;101857.66;;;12.66;100.00
14089;BME280;7120;52.890;6.040;2023-05-23T02:18:19;101867.25;;;12.69;100.00
14089;BME280;7120;52.890;6.040;2023-05-23T02:20:45;101861.44;;;12.70;100.00
14089;BME280;7120;52.890;6.040;2023-05-23T02:23:10;101857.00;;;12.74;100.00
14089;BME280;7120;52.890;6.040;2023-05-23T02:25:35;101861.66;;;12.74;100.00
14089;BME280;7120;52.890;6.040;2023-05-23T02:28:01;101868.41;;;12.86;100.00
14089;BME280;7120;52.890;6.040;2023-05-23T02:30:26;101868.44;;;12.81;100.00
14089;BME280;7120;52.890;6.040;2023-05-23T02:32:52;101874.53;;;12.78;100.00
14089;BME280;7120;52.890;6.040;2023-05-23T02:35:17;101863.84;;;12.77;100.00
14089;BME280;7120;52.890;6.040;2023-05-23T02:37:42;101867.94;;;12.79;100.00
14089;BME280;7120;52.890;6.040;2023-05-23T02:40:08;101871.03;;;12.73;100.00
14089;BME280;7120;52.890;6.040;2023-05-23T02:42:34;101875.09;;;12.75;100.00
14089;BME280;7120;52.890;6.040;2023-05-23T02:44:59;101877.28;;;12.78;100.00
14089;BME280;7120;52.890;6.040;2023-05-23T02:47:25;101876.75;;;12.76;100.00
14089;BME280;7120;52.890;6.040;2023-05-23T02:49:51;101888.25;;;12.78;100.00
14089;BME280;7120;52.890;6.040;2023-05-23T02:52:16;101891.38;;;12.67;100.00
14089;BME280;7120;52.890;6.040;2023-05-23T02:54:41;101880.75;;;12.60;100.00
14089;BME280;7120;52.890;6.040;2023-05-23T02:57:07;101887.03;;;12.65;100.00
14089;BME280;7120;52.890;6.040;2023-05-23T02:59:32;101881.81;;;12.64;100.00
14089;BME280;7120;52.890;6.040;2023-05-23T03:01:58;101886.44;;;12.69;100.00
14089;BME280;7120;52.890;6.040;2023-05-23T03:04:23;101883.91;;;12.48;100.00
14089;BME280;7120;52.890;6.040;2023-05-23T03:06:49;101892.41;;;12.47;100.00
14089;BME280;7120;52.890;6.040;2023-05-23T03:09:18;101891.59;;;12.46;100.00
14089;BME280;7120;52.890;6.040;2023-05-23T03:11:43;101901.56;;;12.37;100.00
14089;BME280;7120;52.890;6.040;2023-05-23T03:14:09;101906.13;;;12.47;100.00
14089;BME280;7120;52.890;6.040;2023-05-23T03:16:34;101899.25;;;12.49;100.00
14089;BME280;7120;52.890;6.040;2023-05-23T03:18:59;101897.91;;;12.47;100.00
14089;BME280;7120;52.890;6.040;2023-05-23T03:21:25;101901.25;;;12.38;100.00
14089;BME280;7120;52.890;6.040;2023-05-23T03:23:50;101906.53;;;12.35;100.00
14089;BME280;7120;52.890;6.040;2023-05-23T03:26:16;101906.22;;;12.36;100.00
14089;BME280;7120;52.890;6.040;2023-05-23T03:28:41;101911.41;;;12.38;100.00
14089;BME280;7120;52.890;6.040;2023-05-23T03:31:06;101917.16;;;12.42;100.00
14089;BME280;7120;52.890;6.040;2023-05-23T03:33:32;101916.41;;;12.31;100.00
14089;BME280;7120;52.890;6.040;2023-05-23T03:35:57;101904.91;;;12.34;100.00
14089;BME280;7120;52.890;6.040;2023-05-23T03:38:23;101912.31;;;12.33;100.00
14089;BME280;7120;52.890;6.040;2023-05-23T03:40:48;101918.81;;;12.43;100.00
14089;BME280;7120;52.890;6.040;2023-05-23T03:43:13;101920.03;;;12.26;100.00
14089;BME280;7120;52.890;6.040;2023-05-23T03:45:39;101929.00;;;12.37;100.00
14089;BME280;7120;52.890;6.040;2023-05-23T03:48:04;101942.56;;;12.18;100.00
14089;BME280;7120;52.890;6.040;2023-05-23T03:50:30;101937.84;;;12.29;100.00
14089;BME280;7120;52.890;6.040;2023-05-23T03:52:55;101929.78;;;12.08;100.00
14089;BME280;7120;52.890;6.040;2023-05-23T03:55:21;101938.22;;;12.12;100.00
14089;BME280;7120;52.890;6.040;2023-05-23T03:57:48;101928.44;;;12.06;100.00
14089;BME280;7120;52.890;6.040;2023-05-23T04:00:15;101942.91;;;12.12;100.00
14089;BME280;7120;52.890;6.040;2023-05-23T04:02:40;101941.31;;;12.05;100.00
14089;BME280;7120;52.890;6.040;2023-05-23T04:05:06;101942.19;;;11.96;100.00
14089;BME280;7120;52.890;6.040;2023-05-23T04:07:32;101941.63;;;11.99;100.00
14089;BME280;7120;52.890;6.040;2023-05-23T04:10:01;101955.28;;;12.04;100.00
14089;BME280;7120;52.890;6.040;2023-05-23T04:12:27;101960.78;;;12.04;100.00
14089;BME280;7120;52.890;6.040;2023-05-23T04:14:55;101961.53;;;12.15;100.00
14089;BME280;7120;52.890;6.040;2023-05-23T04:17:22;101953.84;;;12.17;100.00
14089;BME280;7120;52.890;6.040;2023-05-23T04:19:48;101969.28;;;12.02;100.00
14089;BME280;7120;52.890;6.040;2023-05-23T04:22:14;101959.22;;;11.93;100.00
14089;BME280;7120;52.890;6.040;2023-05-23T04:24:39;101963.59;;;11.94;100.00
14089;BME280;7120;52.890;6.040;2023-05-23T04:27:05;101967.47;;;11.82;100.00
14089;BME280;7120;52.890;6.040;2023-05-23T04:29:32;101962.56;;;11.85;100.00
14089;BME280;7120;52.890;6.040;2023-05-23T04:31:57;101969.59;;;11.96;100.00
14089;BME280;7120;52.890;6.040;2023-05-23T04:34:22;101971.28;;;11.92;100.00
14089;BME280;7120;52.890;6.040;2023-05-23T04:36:48;101973.72;;;11.98;100.00
14089;BME280;7120;52.890;6.040;2023-05-23T04:39:13;101972.94;;;11.88;100.00
14089;BME280;7120;52.890;6.040;2023-05-23T04:41:41;101981.69;;;11.95;100.00
14089;BME280;7120;52.890;6.040;2023-05-23T04:44:06;101979.75;;;11.95;100.00
14089;BME280;7120;52.890;6.040;2023-05-23T04:46:34;101982.50;;;11.95;100.00
14089;BME280;7120;52.890;6.040;2023-05-23T04:49:00;101993.81;;;11.78;100.00
14089;BME280;7120;52.890;6.040;2023-05-23T04:51:26;101985.59;;;11.73;100.00
14089;BME280;7120;52.890;6.040;2023-05-23T04:53:51;101994.66;;;11.69;100.00
14089;BME280;7120;52.890;6.040;2023-05-23T04:56:17;101999.84;;;11.80;100.00
14089;BME280;7120;52.890;6.040;2023-05-23T04:58:45;102005.88;;;11.72;100.00
14089;BME280;7120;52.890;6.040;2023-05-23T05:01:11;102009.47;;;11.68;100.00
14089;BME280;7120;52.890;6.040;2023-05-23T05:03:36;102003.97;;;11.73;100.00
14089;BME280;7120;52.890;6.040;2023-05-23T05:06:02;102013.59;;;11.60;100.00
14089;BME280;7120;52.890;6.040;2023-05-23T05:08:27;102017.16;;;11.55;100.00
14089;BME280;7120;52.890;6.040;2023-05-23T05:10:53;102012.53;;;11.56;100.00
14089;BME280;7120;52.890;6.040;2023-05-23T05:13:19;102017.47;;;11.54;100.00
14089;BME280;7120;52.890;6.040;2023-05-23T05:15:44;102030.91;;;11.50;100.00
14089;BME280;7120;52.890;6.040;2023-05-23T05:18:09;102034.75;;;11.39;100.00
14089;BME280;7120;52.890;6.040;2023-05-23T05:20:36;102027.13;;;11.31;100.00
14089;BME280;7120;52.890;6.040;2023-05-23T05:23:01;102035.88;;;11.38;100.00
14089;BME280;7120;52.890;6.040;2023-05-23T05:25:27;102038.34;;;11.30;100.00
14089;BME280;7120;52.890;6.040;2023-05-23T05:27:56;102049.03;;;11.26;100.00
14089;BME280;7120;52.890;6.040;2023-05-23T05:30:22;102035.09;;;11.17;100.00
14089;BME280;7120;52.890;6.040;2023-05-23T05:32:47;102052.88;;;11.30;100.00
14089;BME280;7120;52.890;6.040;2023-05-23T05:35:13;102048.75;;;11.27;100.00
14089;BME280;7120;52.890;6.040;2023-05-23T05:37:38;102061.88;;;11.41;100.00
14089;BME280;7120;52.890;6.040;2023-05-23T05:40:04;102055.03;;;11.38;100.00
14089;BME280;7120;52.890;6.040;2023-05-23T05:42:31;102059.13;;;11.51;100.00
14089;BME280;7120;52.890;6.040;2023-05-23T05:44:57;102061.28;;;11.54;100.00
14089;BME280;7120;52.890;6.040;2023-05-23T05:47:22;102068.69;;;11.53;100.00
14089;BME280;7120;52.890;6.040;2023-05-23T05:49:48;102072.19;;;11.74;100.00
14089;BME280;7120;52.890;6.040;2023-05-23T05:52:13;102071.66;;;11.77;100.00
14089;BME280;7120;52.890;6.040;2023-05-23T05:54:38;102071.94;;;11.81;100.00
14089;BME280;7120;52.890;6.040;2023-05-23T05:57:04;102076.34;;;11.62;100.00
14089;BME280;7120;52.890;6.040;2023-05-23T05:59:29;102074.19;;;11.48;100.00
14089;BME280;7120;52.890;6.040;2023-05-23T06:01:55;102079.66;;;11.53;100.00
14089;BME280;7120;52.890;6.040;2023-05-23T06:04:20;102091.47;;;11.49;100.00
14089;BME280;7120;52.890;6.040;2023-05-23T06:06:46;102098.03;;;11.43;100.00
14089;BME280;7120;52.890;6.040;2023-05-23T06:09:11;102100.53;;;11.29;100.00
14089;BME280;7120;52.890;6.040;2023-05-23T06:11:36;102104.34;;;11.38;100.00
14089;BME280;7120;52.890;6.040;2023-05-23T06:14:06;102100.25;;;11.31;100.00
14089;BME280;7120;52.890;6.040;2023-05-23T06:16:32;102107.09;;;11.38;100.00
14089;BME280;7120;52.890;6.040;2023-05-23T06:18:57;102115.31;;;11.38;100.00
14089;BME280;7120;52.890;6.040;2023-05-23T06:21:24;102108.72;;;11.39;100.00
14089;BME280;7120;52.890;6.040;2023-05-23T06:23:49;102112.84;;;11.32;100.00
14089;BME280;7120;52.890;6.040;2023-05-23T06:26:14;102113.94;;;11.36;100.00
14089;BME280;7120;52.890;6.040;2023-05-23T06:28:40;102114.72;;;11.51;100.00
14089;BME280;7120;52.890;6.040;2023-05-23T06:31:05;102115.72;;;11.96;100.00
14089;BME280;7120;52.890;6.040;2023-05-23T06:33:33;102116.53;;;11.97;100.00
14089;BME280;7120;52.890;6.040;2023-05-23T06:35:59;102117.97;;;11.74;100.00
14089;BME280;7120;52.890;6.040;2023-05-23T06:38:28;102122.09;;;11.81;100.00
14089;BME280;7120;52.890;6.040;2023-05-23T06:40:54;102113.31;;;11.69;100.00
14089;BME280;7120;52.890;6.040;2023-05-23T06:43:19;102128.69;;;11.55;100.00
14089;BME280;7120;52.890;6.040;2023-05-23T06:45:45;102125.94;;;11.55;100.00
14089;BME280;7120;52.890;6.040;2023-05-23T06:48:12;102114.41;;;11.78;100.00
14089;BME280;7120;52.890;6.040;2023-05-23T06:50:37;102121.91;;;12.27;100.00
14089;BME280;7120;52.890;6.040;2023-05-23T06:53:03;102119.41;;;12.31;100.00
14089;BME280;7120;52.890;6.040;2023-05-23T06:55:28;102115.03;;;12.25;100.00
14089;BME280;7120;52.890;6.040;2023-05-23T06:57:54;102126.06;;;12.20;100.00
14089;BME280;7120;52.890;6.040;2023-05-23T07:00:20;102136.28;;;12.53;100.00
14089;BME280;7120;52.890;6.040;2023-05-23T07:02:45;102125.91;;;12.50;100.00
14089;BME280;7120;52.890;6.040;2023-05-23T07:05:13;102132.00;;;13.15;100.00
14089;BME280;7120;52.890;6.040;2023-05-23T07:07:38;102138.44;;;13.40;100.00
14089;BME280;7120;52.890;6.040;2023-05-23T07:10:04;102149.81;;;13.81;100.00
14089;BME280;7120;52.890;6.040;2023-05-23T07:12:30;102142.00;;;14.17;97.13
14089;BME280;7120;52.890;6.040;2023-05-23T07:14:55;102148.25;;;13.12;100.00
14089;BME280;7120;52.890;6.040;2023-05-23T07:17:21;102137.59;;;13.05;99.38
14089;BME280;7120;52.890;6.040;2023-05-23T07:19:46;102150.09;;;12.43;100.00
14089;BME280;7120;52.890;6.040;2023-05-23T07:22:12;102153.50;;;12.15;100.00
14089;BME280;7120;52.890;6.040;2023-05-23T07:24:37;102155.13;;;12.16;100.00
14089;BME280;7120;52.890;6.040;2023-05-23T07:27:03;102153.38;;;12.40;100.00
14089;BME280;7120;52.890;6.040;2023-05-23T07:29:28;102156.91;;;12.46;100.00
14089;BME280;7120;52.890;6.040;2023-05-23T07:31:53;102153.94;;;12.42;100.00
14089;BME280;7120;52.890;6.040;2023-05-23T07:34:19;102156.06;;;12.50;100.00
14089;BME280;7120;52.890;6.040;2023-05-23T07:36:44;102156.59;;;12.52;100.00
14089;BME280;7120;52.890;6.040;2023-05-23T07:39:09;102150.97;;;12.33;100.00
14089;BME280;7120;52.890;6.040;2023-05-23T07:41:35;102166.88;;;12.31;100.00
14089;BME280;7120;52.890;6.040;2023-05-23T07:44:00;102164.63;;;12.44;100.00
14089;BME280;7120;52.890;6.040;2023-05-23T07:46:26;102173.34;;;12.56;100.00
14089;BME280;7120;52.890;6.040;2023-05-23T07:48:51;102166.94;;;12.71;100.00
14089;BME280;7120;52.890;6.040;2023-05-23T07:51:16;102187.59;;;13.02;100.00
14089;BME280;7120;52.890;6.040;2023-05-23T07:53:45;102177.63;;;12.77;100.00
14089;BME280;7120;52.890;6.040;2023-05-23T07:56:10;102179.44;;;12.92;100.00
14089;BME280;7120;52.890;6.040;2023-05-23T07:58:36;102175.75;;;13.75;94.11
14089;BME280;7120;52.890;6.040;2023-05-23T08:01:01;102165.69;;;13.89;89.23
14089;BME280;7120;52.890;6.040;2023-05-23T08:03:27;102173.59;;;13.96;93.04
14089;BME280;7120;52.890;6.040;2023-05-23T08:05:53;102171.41;;;13.69;94.22
14089;BME280;7120;52.890;6.040;2023-05-23T08:08:18;102173.41;;;13.29;97.29
14089;BME280;7120;52.890;6.040;2023-05-23T08:10:43;102180.56;;;13.59;95.02
14089;BME280;7120;52.890;6.040;2023-05-23T08:13:10;102174.78;;;13.61;94.44
14089;BME280;7120;52.890;6.040;2023-05-23T08:15:35;102177.31;;;14.29;89.52
14089;BME280;7120;52.890;6.040;2023-05-23T08:18:00;102182.13;;;13.94;90.38
14089;BME280;7120;52.890;6.040;2023-05-23T08:20:26;102181.19;;;14.71;89.49
14089;BME280;7120;52.890;6.040;2023-05-23T08:22:58;102190.44;;;15.18;83.95
14089;BME280;7120;52.890;6.040;2023-05-23T08:25:25;102178.16;;;15.75;80.87
14089;BME280;7120;52.890;6.040;2023-05-23T08:27:55;102187.09;;;15.02;79.03
14089;BME280;7120;52.890;6.040;2023-05-23T08:30:21;102193.38;;;15.21;81.11
14089;BME280;7120;52.890;6.040;2023-05-23T08:32:47;102194.88;;;14.57;82.55
14089;BME280;7120;52.890;6.040;2023-05-23T08:35:13;102193.47;;;13.88;88.37
14089;BME280;7120;52.890;6.040;2023-05-23T08:37:38;102196.53;;;13.57;87.61
14089;BME280;7120;52.890;6.040;2023-05-23T08:40:06;102199.41;;;14.24;87.35
14089;BME280;7120;52.890;6.040;2023-05-23T08:42:32;102199.50;;;14.62;82.77
14089;BME280;7120;52.890;6.040;2023-05-23T08:44:58;102195.28;;;14.88;78.17
14089;BME280;7120;52.890;6.040;2023-05-23T08:47:23;102212.91;;;14.68;74.90
14089;BME280;7120;52.890;6.040;2023-05-23T08:49:50;102207.50;;;15.52;75.24
14089;BME280;7120;52.890;6.040;2023-05-23T08:52:18;102201.16;;;15.98;76.09
14089;BME280;7120;52.890;6.040;2023-05-23T08:54:46;102205.94;;;16.75;73.17
14089;BME280;7120;52.890;6.040;2023-05-23T08:57:12;102205.59;;;16.90;73.52
14089;BME280;7120;52.890;6.040;2023-05-23T08:59:37;102221.47;;;15.23;72.16
14089;BME280;7120;52.890;6.040;2023-05-23T09:02:06;102212.56;;;14.75;75.25
14089;BME280;7120;52.890;6.040;2023-05-23T09:04:34;102215.94;;;14.48;78.75
14089;BME280;7120;52.890;6.040;2023-05-23T09:07:01;102206.63;;;15.38;73.78
14089;BME280;7120;52.890;6.040;2023-05-23T09:09:27;102214.47;;;15.31;74.94
14089;BME280;7120;52.890;6.040;2023-05-23T09:11:54;102219.78;;;16.06;73.86
14089;BME280;7120;52.890;6.040;2023-05-23T09:14:22;102225.00;;;15.94;71.18
14089;BME280;7120;52.890;6.040;2023-05-23T09:16:47;102213.56;;;16.14;68.50
14089;BME280;7120;52.890;6.040;2023-05-23T09:19:13;102226.75;;;16.31;68.50
14089;BME280;7120;52.890;6.040;2023-05-23T09:21:45;102233.16;;;16.54;69.94
14089;BME280;7120;52.890;6.040;2023-05-23T09:24:11;102227.84;;;16.58;69.36
14089;BME280;7120;52.890;6.040;2023-05-23T09:26:36;102236.31;;;15.92;72.17
14089;BME280;7120;52.890;6.040;2023-05-23T09:29:05;102242.50;;;15.71;70.88
14089;BME280;7120;52.890;6.040;2023-05-23T09:31:31;102225.53;;;15.63;69.55
14089;BME280;7120;52.890;6.040;2023-05-23T09:33:57;102234.22;;;16.44;71.91
14089;BME280;7120;52.890;6.040;2023-05-23T09:36:26;102229.81;;;16.02;64.07
14089;BME280;7120;52.890;6.040;2023-05-23T09:38:53;102244.72;;;14.98;72.38
14089;BME280;7120;52.890;6.040;2023-05-23T09:41:19;102242.84;;;15.83;74.44
14089;BME280;7120;52.890;6.040;2023-05-23T09:43:52;102239.66;;;15.57;78.33
14089;BME280;7120;52.890;6.040;2023-05-23T09:46:19;102245.34;;;16.12;70.21
14089;BME280;7120;52.890;6.040;2023-05-23T09:48:46;102255.88;;;16.65;65.96
14089;BME280;7120;52.890;6.040;2023-05-23T09:51:12;102250.00;;;15.84;66.37
14089;BME280;7120;52.890;6.040;2023-05-23T09:53:37;102254.69;;;16.71;67.96
14089;BME280;7120;52.890;6.040;2023-05-23T09:56:03;102249.00;;;15.93;71.94
14089;BME280;7120;52.890;6.040;2023-05-23T09:58:32;102258.69;;;15.58;71.20
14089;BME280;7120;52.890;6.040;2023-05-23T10:00:58;102245.00;;;15.34;72.07
14089;BME280;7120;52.890;6.040;2023-05-23T10:03:33;102248.31;;;15.50;68.84
14089;BME280;7120;52.890;6.040;2023-05-23T10:06:07;102246.47;;;16.25;65.08
14089;BME280;7120;52.890;6.040;2023-05-23T10:08:42;102245.84;;;16.28;64.08
14089;BME280;7120;52.890;6.040;2023-05-23T10:13:42;102256.25;;;15.38;69.05
14089;BME280;7120;52.890;6.040;2023-05-23T10:16:14;102263.88;;;15.08;73.41
14089;BME280;7120;52.890;6.040;2023-05-23T10:18:43;102258.09;;;14.86;77.21
14089;BME280;7120;52.890;6.040;2023-05-23T10:21:11;102262.34;;;14.78;73.19
14089;BME280;7120;52.890;6.040;2023-05-23T10:23:41;102268.81;;;14.69;75.53
14089;BME280;7120;52.890;6.040;2023-05-23T10:26:07;102266.09;;;14.88;77.15
14089;BME280;7120;52.890;6.040;2023-05-23T10:28:32;102277.78;;;15.36;69.95
14089;BME280;7120;52.890;6.040;2023-05-23T10:30:58;102279.78;;;15.49;69.28
14089;BME280;7120;52.890;6.040;2023-05-23T10:33:25;102275.78;;;15.04;70.63
14089;BME280;7120;52.890;6.040;2023-05-23T10:36:30;102279.38;;;15.23;73.16
14089;BME280;7120;52.890;6.040;2023-05-23T10:39:04;102270.72;;;14.44;76.27
14089;BME280;7120;52.890;6.040;2023-05-23T10:41:59;102280.09;;;14.19;80.88
14089;BME280;7120;52.890;6.040;2023-05-23T10:44:28;102281.31;;;15.23;76.80
14089;BME280;7120;52.890;6.040;2023-05-23T10:46:58;102274.78;;;16.03;68.64
14089;BME280;7120;52.890;6.040;2023-05-23T10:49:39;102273.81;;;15.61;70.78
14089;BME280;7120;52.890;6.040;2023-05-23T10:52:06;102271.44;;;15.35;72.08
14089;BME280;7120;52.890;6.040;2023-05-23T10:54:45;102282.78;;;15.34;75.63
14089;BME280;7120;52.890;6.040;2023-05-23T10:57:15;102289.63;;;15.18;75.79
14089;BME280;7120;52.890;6.040;2023-05-23T10:59:42;102280.84;;;14.73;78.42
14089;BME280;7120;52.890;6.040;2023-05-23T11:02:15;102282.41;;;15.03;80.07
14089;BME280;7120;52.890;6.040;2023-05-23T11:04:41;102298.78;;;15.70;74.78
14089;BME280;7120;52.890;6.040;2023-05-23T11:10:09;102291.16;;;17.09;65.93
14089;BME280;7120;52.890;6.040;2023-05-23T11:12:40;102287.06;;;17.43;61.16
14089;BME280;7120;52.890;6.040;2023-05-23T11:15:21;102289.13;;;16.46;62.38
14089;BME280;7120;52.890;6.040;2023-05-23T11:17:55;102298.94;;;15.92;67.60
14089;BME280;7120;52.890;6.040;2023-05-23T11:20:23;102302.00;;;15.39;66.87
14089;BME280;7120;52.890;6.040;2023-05-23T11:23:06;102298.34;;;15.06;68.65
14089;BME280;7120;52.890;6.040;2023-05-23T11:25:51;102303.09;;;15.76;63.55
14089;BME280;7120;52.890;6.040;2023-05-23T11:28:18;102299.75;;;15.79;68.39
14089;BME280;7120;52.890;6.040;2023-05-23T11:30:46;102305.50;;;15.63;63.20
14089;BME280;7120;52.890;6.040;2023-05-23T11:33:13;102299.38;;;15.29;68.09
14089;BME280;7120;52.890;6.040;2023-05-23T11:35:44;102308.53;;;15.05;71.00
14089;BME280;7120;52.890;6.040;2023-05-23T11:38:10;102302.69;;;16.01;64.86
14089;BME280;7120;52.890;6.040;2023-05-23T11:40:41;102304.59;;;15.68;67.67
14089;BME280;7120;52.890;6.040;2023-05-23T11:43:08;102304.22;;;15.18;68.36
14089;BME280;7120;52.890;6.040;2023-05-23T11:45:35;102309.63;;;14.86;70.83
14089;BME280;7120;52.890;6.040;2023-05-23T11:48:12;102307.00;;;15.18;69.61
14089;BME280;7120;52.890;6.040;2023-05-23T11:50:48;102302.41;;;14.90;68.15
14089;BME280;7120;52.890;6.040;2023-05-23T11:53:14;102305.38;;;16.47;62.22
14089;BME280;7120;52.890;6.040;2023-05-23T11:56:03;102308.47;;;16.87;60.58
14089;BME280;7120;52.890;6.040;2023-05-23T11:58:36;102307.41;;;16.42;62.66
14089;BME280;7120;52.890;6.040;2023-05-23T12:01:03;102290.97;;;15.39;65.88
14089;BME280;7120;52.890;6.040;2023-05-23T12:03:29;102309.44;;;16.09;65.68
14089;BME280;7120;52.890;6.040;2023-05-23T12:05:56;102316.75;;;15.86;65.27
14089;BME280;7120;52.890;6.040;2023-05-23T12:08:21;102315.72;;;16.28;62.63
14089;BME280;7120;52.890;6.040;2023-05-23T12:10:56;102308.94;;;15.74;66.33
14089;BME280;7120;52.890;6.040;2023-05-23T12:13:27;102307.75;;;16.68;67.09
14089;BME280;7120;52.890;6.040;2023-05-23T12:15:54;102309.16;;;16.38;64.16
14089;BME280;7120;52.890;6.040;2023-05-23T12:18:20;102326.06;;;15.71;66.54
14089;BME280;7120;52.890;6.040;2023-05-23T12:20:48;102312.22;;;14.77;68.77
14089;BME280;7120;52.890;6.040;2023-05-23T12:23:21;102319.59;;;14.57;70.50
14089;BME280;7120;52.890;6.040;2023-05-23T12:25:51;102315.22;;;14.99;68.67
14089;BME280;7120;52.890;6.040;2023-05-23T12:28:16;102330.38;;;14.54;67.70
14089;BME280;7120;52.890;6.040;2023-05-23T12:30:42;102326.56;;;14.50;72.30
14089;BME280;7120;52.890;6.040;2023-05-23T12:33:08;102320.56;;;16.04;64.95
14089;BME280;7120;52.890;6.040;2023-05-23T12:35:34;102318.88;;;16.22;61.49
14089;BME280;7120;52.890;6.040;2023-05-23T12:37:59;102317.88;;;15.99;58.92
14089;BME280;7120;52.890;6.040;2023-05-23T12:40:25;102318.59;;;17.06;62.68
14089;BME280;7120;52.890;6.040;2023-05-23T12:42:55;102309.16;;;17.20;57.32
14089;BME280;7120;52.890;6.040;2023-05-23T12:45:31;102321.91;;;16.20;61.74
14089;BME280;7120;52.890;6.040;2023-05-23T12:47:57;102315.97;;;16.73;59.77
14089;BME280;7120;52.890;6.040;2023-05-23T12:50:22;102330.97;;;17.08;62.17
14089;BME280;7120;52.890;6.040;2023-05-23T12:52:47;102323.88;;;15.87;58.41
14089;BME280;7120;52.890;6.040;2023-05-23T12:55:13;102316.84;;;16.41;53.98
14089;BME280;7120;52.890;6.040;2023-05-23T12:57:38;102317.13;;;15.23;58.97
14089;BME280;7120;52.890;6.040;2023-05-23T13:00:05;102317.66;;;14.82;65.50
14089;BME280;7120;52.890;6.040;2023-05-23T13:02:31;102333.63;;;15.65;63.00
14089;BME280;7120;52.890;6.040;2023-05-23T13:04:56;102318.91;;;16.77;59.37
14089;BME280;7120;52.890;6.040;2023-05-23T13:07:22;102324.84;;;16.97;53.08
14089;BME280;7120;52.890;6.040;2023-05-23T13:09:47;102329.25;;;16.98;56.55
14089;BME280;7120;52.890;6.040;2023-05-23T13:12:12;102336.72;;;15.40;61.31